Time;durP1;ratioP1;P1;durP2;ratioP2;P2;SDS_P1;SDS_P2;PMS_P1;PMS_P2;Temp;Humidity;BMP_temperature;BMP_pressure;BME280_temperature;BME280_humidity;BME280_pressure;Samples;Min_cycle;Max_cycle;Signal;HPM_P1;HPM_P2
2024/03/13 00:00:59;;;;;;;;;;;;;;;5.87;100.00;99436.56;5004994;28;20009;-87
2024/03/13 00:03:24;;;;;;;;;;;;;;;5.91;100.00;99443.44;5023165;28;20348;-90
2024/03/13 00:05:50;;;;;;;;;;;;;;;5.89;100.00;99442.63;5023312;28;19917;-92
2024/03/13 00:08:16;;;;;;;;;;;;;;;5.95;100.00;99431.94;5004883;28;19913;-92
2024/03/13 00:10:41;;;;;;;;;;;;;;;5.99;100.00;99437.97;5023735;28;19933;-91
2024/03/13 06:12:57;;;;;;;;;;;;;;;6.98;100.00;99558.69;5796836;23;20441;-88
2024/03/13 06:15:22;;;;;;;;;;;;;;;6.96;100.00;99571.91;5024801;28;19921;-86
2024/03/13 06:17:47;;;;;;;;;;;;;;;6.97;100.00;99573.59;5025381;28;19928;-85
2024/03/13 06:20:13;;;;;;;;;;;;;;;6.98;100.00;99570.06;5007197;28;19917;-87
2024/03/13 06:22:41;;;;;;;;;;;;;;;6.99;100.00;99566.53;5025075;28;19917;-89
2024/03/13 06:25:08;;;;;;;;;;;;;;;7.01;100.00;99577.03;5024120;28;20031;-89
2024/03/13 06:27:33;;;;;;;;;;;;;;;7.00;100.00;99580.56;5006005;28;19924;-89
2024/03/13 06:30:00;;;;;;;;;;;;;;;7.05;100.00;99579.53;5024880;28;19921;-93
2024/03/13 06:32:28;;;;;;;;;;;;;;;7.03;100.00;99570.78;5023918;28;19923;-86
2024/03/13 06:34:55;;;;;;;;;;;;;;;7.03;100.00;99577.84;5024856;28;19924;-86
2024/03/13 06:37:20;;;;;;;;;;;;;;;7.00;100.00;99578.78;5024862;28;20003;-87
2024/03/13 06:39:45;;;;;;;;;;;;;;;7.03;100.00;99585.75;5023631;28;19940;-84
2024/03/13 06:42:13;;;;;;;;;;;;;;;7.04;100.00;99588.31;5023326;28;19913;-89
2024/03/13 06:44:39;;;;;;;;;;;;;;;7.02;100.00;99590.16;5024817;28;20359;-87
2024/03/13 06:47:05;;;;;;;;;;;;;;;7.05;100.00;99591.81;5024338;28;19918;-87
2024/03/13 06:49:33;;;;;;;;;;;;;;;7.05;100.00;99594.44;5024432;28;19917;-84
2024/03/13 06:51:59;;;;;;;;;;;;;;;7.07;100.00;99590.88;5023732;28;19928;-88
2024/03/13 06:54:24;;;;;;;;;;;;;;;7.03;100.00;99593.66;5024290;28;19917;-90
2024/03/13 06:56:49;;;;;;;;;;;;;;;7.07;100.00;99593.50;5023238;28;19917;-91
2024/03/13 06:59:19;;;;;;;;;;;;;;;7.05;100.00;99594.44;5024538;28;20055;-89
2024/03/13 07:01:47;;;;;;;;;;;;;;;7.02;100.00;99602.44;5024531;28;19920;-90
2024/03/13 07:04:12;;;;;;;;;;;;;;;7.02;100.00;99605.97;5024185;28;19928;-88
2024/03/13 07:06:38;;;;;;;;;;;;;;;7.02;100.00;99605.06;5024792;28;19913;-89
2024/03/13 07:09:03;;;;;;;;;;;;;;;7.06;100.00;99607.56;5024119;28;20000;-81
2024/03/13 07:11:28;;;;;;;;;;;;;;;7.04;100.00;99614.69;5023750;28;20276;-85
2024/03/13 07:13:54;;;;;;;;;;;;;;;7.02;100.00;99612.97;5022709;28;19921;-87
2024/03/13 07:16:19;;;;;;;;;;;;;;;7.05;100.00;99615.53;5023861;28;20440;-87
2024/03/13 07:18:46;;;;;;;;;;;;;;;7.05;100.00;99613.78;5023471;28;19918;-86
2024/03/13 07:21:12;;;;;;;;;;;;;;;7.03;100.00;99618.22;5023608;28;19921;-87
2024/03/13 07:23:37;;;;;;;;;;;;;;;7.07;100.00;99616.38;5024197;28;19923;-84
2024/03/13 07:26:05;;;;;;;;;;;;;;;7.08;100.00;99624.22;5024419;28;20294;-87
2024/03/13 07:28:33;;;;;;;;;;;;;;;7.06;100.00;99628.66;5021696;28;19925;-83
2024/03/13 07:30:58;;;;;;;;;;;;;;;7.09;100.00;99633.81;5025165;28;19974;-85
2024/03/13 07:33:23;;;;;;;;;;;;;;;7.11;100.00;99623.25;5023256;28;19918;-85
2024/03/13 07:35:49;;;;;;;;;;;;;;;7.12;100.00;99630.25;5021746;28;19924;-85
2024/03/13 07:38:14;;;;;;;;;;;;;;;7.12;100.00;99632.88;5005315;28;19920;-82
2024/03/13 07:40:42;;;;;;;;;;;;;;;7.16;100.00;99636.28;5022349;28;19917;-84
2024/03/13 07:43:10;;;;;;;;;;;;;;;7.21;100.00;99637.00;5021987;28;19919;-84
2024/03/13 07:45:41;;;;;;;;;;;;;;;7.19;100.00;99628.28;5023250;28;19918;-83
2024/03/13 07:48:08;;;;;;;;;;;;;;;7.18;100.00;99634.44;5023733;28;19917;-83
2024/03/13 07:50:34;;;;;;;;;;;;;;;7.23;100.00;99629.91;5023173;28;19928;-86
2024/03/13 07:53:02;;;;;;;;;;;;;;;7.23;100.00;99637.81;5023689;28;19918;-87
2024/03/13 07:55:27;;;;;;;;;;;;;;;7.15;100.00;99640.69;5023217;28;20396;-84
2024/03/13 07:57:53;;;;;;;;;;;;;;;7.12;100.00;99646.06;5022137;28;19925;-84
2024/03/13 08:58:20;;;;;;;;;;;;;;;7.18;100.00;99703.84;4963645;28;19953;-84
2024/03/13 09:00:48;;;;;;;;;;;;;;;7.16;100.00;99707.44;4963150;28;20008;-88
2024/03/13 09:03:14;;;;;;;;;;;;;;;7.16;100.00;99707.44;4961614;28;20352;-88
2024/03/13 09:05:40;;;;;;;;;;;;;;;7.15;100.00;99713.59;4973769;28;19969;-90
2024/03/13 09:08:05;;;;;;;;;;;;;;;7.16;100.00;99718.81;4956544;28;20423;-88
2024/03/13 09:10:30;;;;;;;;;;;;;;;7.16;100.00;99712.69;4962511;28;19922;-89
2024/03/13 09:12:55;;;;;;;;;;;;;;;7.17;100.00;99714.44;4962896;28;20351;-88
2024/03/13 09:15:23;;;;;;;;;;;;;;;7.18;100.00;99713.50;4956184;28;19925;-88
2024/03/13 09:17:49;;;;;;;;;;;;;;;7.17;100.00;99717.06;4971837;28;19969;-85
2024/03/13 09:20:14;;;;;;;;;;;;;;;7.19;100.00;99720.50;4973166;28;19918;-86
2024/03/13 09:22:41;;;;;;;;;;;;;;;7.18;100.00;99718.78;4973447;28;19921;-87
2024/03/13 09:25:09;;;;;;;;;;;;;;;7.17;100.00;99719.72;4955784;28;19918;-86
2024/03/13 09:27:35;;;;;;;;;;;;;;;7.17;100.00;99720.56;4971670;28;19934;-89
2024/03/13 09:30:03;;;;;;;;;;;;;;;7.19;100.00;99721.38;4973057;28;19922;-86
2024/03/13 09:32:28;;;;;;;;;;;;;;;7.20;100.00;99723.09;4973076;28;19918;-90
2024/03/13 09:35:08;;;;;;;;;;;;;;;;;;;;;
2024/03/13 09:37:33;;;;;;;;;;;;;;;7.20;100.00;99724.88;4972792;28;20569;-88
2024/03/13 09:39:59;;;;;;;;;;;;;;;7.24;100.00;99727.38;4973567;28;20020;-88
2024/03/13 09:42:25;;;;;;;;;;;;;;;7.23;100.00;99730.06;4956904;28;20391;-88
2024/03/13 09:44:53;;;;;;;;;;;;;;;7.21;100.00;99730.09;4977011;28;19928;-90
2024/03/13 09:47:19;;;;;;;;;;;;;;;7.24;100.00;99722.13;4957234;28;19941;-87
2024/03/13 09:49:44;;;;;;;;;;;;;;;7.26;100.00;99727.34;4976619;28;19922;-86
2024/03/13 09:52:15;;;;;;;;;;;;;;;7.27;100.00;99729.03;4975948;28;20377;-87
2024/03/13 09:54:40;;;;;;;;;;;;;;;7.28;100.00;99731.63;4957067;28;20285;-90
2024/03/13 09:57:07;;;;;;;;;;;;;;;7.28;100.00;99729.00;4974978;28;19977;-89
2024/03/13 09:59:32;;;;;;;;;;;;;;;7.28;100.00;99730.78;4976944;28;19945;-89
2024/03/13 10:02:01;;;;;;;;;;;;;;;7.28;100.00;99728.16;4959269;28;20369;-84
2024/03/13 10:04:37;;;;;;;;;;;;;;;;;;;;;
2024/03/13 10:07:03;;;;;;;;;;;;;;;7.27;100.00;99732.56;4977077;28;19923;-90
2024/03/13 10:09:46;;;;;;;;;;;;;;;7.30;100.00;99736.00;4976190;28;20013;-86
2024/03/13 10:12:17;;;;;;;;;;;;;;;7.35;100.00;99739.38;4975160;28;19918;-88
2024/03/13 10:14:45;;;;;;;;;;;;;;;7.32;100.00;99742.09;4974919;28;19922;-89
2024/03/13 10:17:39;;;;;;;;;;;;;;;;;;;;;
2024/03/13 10:20:36;;;;;;;;;;;;;;;7.31;100.00;99737.72;4975809;28;20346;-90
2024/03/13 10:22:59;;;;;;;;;;;;;;;7.33;100.00;99739.41;4972383;28;19914;-92
2024/03/13 10:25:28;;;;;;;;;;;;;;;7.36;100.00;99741.09;4974919;28;19922;-86
2024/03/13 10:27:54;;;;;;;;;;;;;;;7.35;100.00;99740.22;4975935;28;20389;-87
2024/03/13 10:30:19;;;;;;;;;;;;;;;7.40;100.00;99748.88;4975948;28;19921;-85
2024/03/13 10:32:45;;;;;;;;;;;;;;;7.41;100.00;99737.41;4976034;28;19965;-85
2024/03/13 10:35:16;;;;;;;;;;;;;;;7.34;100.00;99746.41;4976080;28;19918;-85
2024/03/13 10:37:42;;;;;;;;;;;;;;;7.33;100.00;99746.47;4976315;28;19961;-85
2024/03/13 10:40:08;;;;;;;;;;;;;;;7.37;100.00;99743.69;4957359;28;20408;-89
2024/03/13 10:42:33;;;;;;;;;;;;;;;7.35;100.00;99748.13;4974709;28;20297;-85
2024/03/13 10:44:59;;;;;;;;;;;;;;;7.35;100.00;99745.50;4975917;28;19957;-86
2024/03/13 10:47:30;;;;;;;;;;;;;;;7.36;100.00;99752.50;4976231;28;19922;-90
2024/03/13 10:49:58;;;;;;;;;;;;;;;7.38;100.00;99745.41;4975049;28;20809;-85
2024/03/13 10:52:23;;;;;;;;;;;;;;;7.35;100.00;99744.63;4974495;28;20321;-89
2024/03/13 10:54:49;;;;;;;;;;;;;;;7.37;100.00;99743.69;4976080;28;19922;-93
2024/03/13 10:57:18;;;;;;;;;;;;;;;8.58;100.00;99745.06;4975282;28;20440;-92
2024/03/13 10:59:46;;;;;;;;;;;;;;;9.35;100.00;99747.50;4976171;28;20033;-88
2024/03/13 11:02:13;;;;;;;;;;;;;;;10.31;100.00;99744.56;4975803;28;19925;-89
2024/03/13 11:04:39;;;;;;;;;;;;;;;10.70;100.00;99747.28;4958387;28;19922;-87
2024/03/13 11:07:04;;;;;;;;;;;;;;;10.90;100.00;99742.91;4975307;28;19972;-84
2024/03/13 11:09:29;;;;;;;;;;;;;;;9.64;100.00;99739.31;4974454;28;20008;-86
2024/03/13 11:11:57;;;;;;;;;;;;;;;8.58;100.00;99750.34;4955900;28;21544;-86
2024/03/13 11:14:25;;;;;;;;;;;;;;;8.03;100.00;99748.66;4975214;28;19918;-85
2024/03/13 11:16:56;;;;;;;;;;;;;;;7.68;100.00;99747.16;4974958;28;19923;-87
2024/03/13 11:19:23;;;;;;;;;;;;;;;7.46;100.00;99755.72;4956129;28;19973;-85
2024/03/13 11:21:59;;;;;;;;;;;;;;;7.33;100.00;99752.59;4974051;28;20397;-84
2024/03/13 11:24:25;;;;;;;;;;;;;;;7.14;100.00;99756.69;4974975;28;19954;-83
2024/03/13 11:27:01;;;;;;;;;;;;;;;7.00;100.00;99755.28;4973922;28;19973;-92
2024/03/13 11:29:34;;;;;;;;;;;;;;;6.87;100.00;99748.66;4956140;28;20047;-88
2024/03/13 11:32:15;;;;;;;;;;;;;;;;;;;;;
2024/03/13 11:34:43;;;;;;;;;;;;;;;6.65;100.00;99751.91;4974792;28;20292;-91
2024/03/13 11:37:11;;;;;;;;;;;;;;;6.61;100.00;99758.16;4974260;28;19969;-89
2024/03/13 11:39:38;;;;;;;;;;;;;;;6.52;100.00;99751.34;4957367;28;20017;-91
2024/03/13 11:42:14;;;;;;;;;;;;;;;6.61;100.00;99754.66;4973448;28;20389;-89
2024/03/13 11:44:44;;;;;;;;;;;;;;;6.58;100.00;99755.59;4974387;28;20006;-88
2024/03/13 11:47:12;;;;;;;;;;;;;;;6.49;100.00;99755.84;4974685;28;19918;-88
2024/03/13 11:49:39;;;;;;;;;;;;;;;6.43;100.00;99748.97;4974720;28;19918;-91
2024/03/13 11:52:04;;;;;;;;;;;;;;;6.43;100.00;99754.25;4974394;28;19973;-90
2024/03/13 11:54:34;;;;;;;;;;;;;;;6.38;100.00;99750.00;4974628;28;19926;-92
2024/03/13 11:57:03;;;;;;;;;;;;;;;6.38;100.00;99750.84;4972162;28;19926;-92
2024/03/13 11:59:54;;;;;;;;;;;;;;;6.27;100.00;99745.00;4974456;28;19922;-92
2024/03/13 12:02:31;;;;;;;;;;;;;;;6.22;100.00;99742.47;4955500;28;19950;-92
2024/03/13 12:05:00;;;;;;;;;;;;;;;6.19;100.00;99745.22;4974020;28;19926;-91
2024/03/13 12:07:26;;;;;;;;;;;;;;;6.24;100.00;99732.81;4974147;28;20387;-91
2024/03/13 12:09:52;;;;;;;;;;;;;;;6.28;100.00;99737.06;4955806;28;19926;-90
2024/03/13 12:12:21;;;;;;;;;;;;;;;6.18;100.00;99732.97;4972530;28;20453;-92
2024/03/13 12:14:46;;;;;;;;;;;;;;;6.20;100.00;99733.78;4974086;28;19918;-91
2024/03/13 12:17:14;;;;;;;;;;;;;;;6.14;100.00;99731.28;4962777;28;19985;-91
2024/03/13 12:19:39;;;;;;;;;;;;;;;6.07;100.00;99721.84;4974067;28;19918;-91
2024/03/13 12:22:06;;;;;;;;;;;;;;;6.02;100.00;99727.22;4973897;28;19922;-91
2024/03/13 12:24:37;;;;;;;;;;;;;;;5.99;100.00;99722.88;4955753;28;19925;-92
2024/03/13 12:27:05;;;;;;;;;;;;;;;5.96;100.00;99720.34;4954352;28;19951;-91
2024/03/13 12:29:33;;;;;;;;;;;;;;;6.00;100.00;99714.09;4955779;28;20005;-91
2024/03/13 12:32:11;;;;;;;;;;;;;;;5.89;100.00;99705.59;4972500;28;19957;-91
2024/03/13 12:34:37;;;;;;;;;;;;;;;5.88;100.00;99703.84;4956093;28;19961;-90
2024/03/13 12:37:03;;;;;;;;;;;;;;;5.82;100.00;99712.78;4955247;28;19968;-92
2024/03/13 12:39:29;;;;;;;;;;;;;;;5.87;100.00;99706.53;4954812;28;19926;-90
2024/03/13 12:41:55;;;;;;;;;;;;;;;5.87;100.00;99701.25;4954549;28;20417;-91
2024/03/13 12:44:21;;;;;;;;;;;;;;;5.85;100.00;99697.81;4973533;28;19972;-92
2024/03/13 12:46:46;;;;;;;;;;;;;;;5.89;100.00;99700.34;4973709;28;19922;-89
2024/03/13 12:49:12;;;;;;;;;;;;;;;5.81;100.00;99692.63;4973724;28;19972;-90
2024/03/13 12:51:38;;;;;;;;;;;;;;;5.83;100.00;99696.06;4973482;28;19965;-90
2024/03/13 12:54:05;;;;;;;;;;;;;;;5.87;100.00;99693.38;4973368;28;20351;-90
2024/03/13 12:56:31;;;;;;;;;;;;;;;5.89;100.00;99687.19;4952903;28;19964;-90
2024/03/13 12:58:59;;;;;;;;;;;;;;;5.85;100.00;99688.16;4973336;28;20028;-91
2024/03/13 13:01:27;;;;;;;;;;;;;;;5.85;100.00;99682.03;4950816;28;19941;-91
2024/03/13 13:03:53;;;;;;;;;;;;;;;5.82;100.00;99678.59;4951752;28;20490;-91
2024/03/13 13:06:18;;;;;;;;;;;;;;;5.85;100.00;99682.91;4951647;28;20016;-90
2024/03/13 13:08:49;;;;;;;;;;;;;;;5.87;100.00;99683.75;4951604;28;19922;-90
2024/03/13 13:11:18;;;;;;;;;;;;;;;5.78;100.00;99676.06;4949561;28;20005;-90
2024/03/13 13:13:44;;;;;;;;;;;;;;;5.75;100.00;99678.78;4951688;28;19957;-90
2024/03/13 13:16:09;;;;;;;;;;;;;;;5.78;100.00;99674.31;4950877;28;19922;-90
2024/03/13 13:18:42;;;;;;;;;;;;;;;5.81;100.00;99678.63;4951660;28;19919;-90
2024/03/13 13:21:09;;;;;;;;;;;;;;;5.84;100.00;99681.19;4950494;28;20382;-89
2024/03/13 13:23:35;;;;;;;;;;;;;;;5.79;100.00;99678.66;4951517;28;19925;-89
2024/03/13 13:26:01;;;;;;;;;;;;;;;5.74;100.00;99675.25;4950521;28;20282;-88
2024/03/13 13:28:28;;;;;;;;;;;;;;;5.77;100.00;99671.72;4951611;28;20366;-88
2024/03/13 13:30:54;;;;;;;;;;;;;;;5.83;100.00;99675.03;4951646;28;19922;-89
2024/03/13 13:33:19;;;;;;;;;;;;;;;5.90;100.00;99673.13;4970408;28;19925;-88
2024/03/13 13:35:47;;;;;;;;;;;;;;;5.81;100.00;99673.38;4973089;28;19965;-89
2024/03/13 13:38:14;;;;;;;;;;;;;;;5.80;100.00;99669.00;4955173;28;19918;-89
2024/03/13 13:40:39;;;;;;;;;;;;;;;5.81;100.00;99673.38;4971840;28;20024;-90
2024/03/13 13:43:04;;;;;;;;;;;;;;;5.89;100.00;99675.78;4973103;28;19918;-89
2024/03/13 13:45:29;;;;;;;;;;;;;;;5.90;100.00;99670.47;4954439;28;19918;-89
2024/03/13 13:47:55;;;;;;;;;;;;;;;5.85;100.00;99677.63;4972960;28;19962;-88
2024/03/13 13:50:20;;;;;;;;;;;;;;;5.82;100.00;99672.44;4972911;28;20020;-90
2024/03/13 13:52:46;;;;;;;;;;;;;;;5.83;100.00;99672.41;4971678;28;19997;-88
2024/03/13 13:55:12;;;;;;;;;;;;;;;5.85;100.00;99675.00;4971341;28;19918;-88
2024/03/13 13:57:38;;;;;;;;;;;;;;;5.78;100.00;99673.44;4970209;28;19930;-87
2024/03/13 14:00:10;;;;;;;;;;;;;;;5.72;100.00;99671.81;4972326;28;19933;-88
2024/03/13 14:02:36;;;;;;;;;;;;;;;5.84;100.00;99673.28;4971898;28;20001;-89
2024/03/13 14:05:04;;;;;;;;;;;;;;;5.79;100.00;99678.66;4954787;28;20368;-89
2024/03/13 14:07:33;;;;;;;;;;;;;;;5.85;100.00;99677.63;4953282;28;20452;-87
2024/03/13 14:09:58;;;;;;;;;;;;;;;5.84;100.00;99675.94;4972330;28;19969;-86
2024/03/13 14:12:32;;;;;;;;;;;;;;;5.81;100.00;99668.97;4970102;28;19965;-86
2024/03/13 14:14:57;;;;;;;;;;;;;;;5.82;100.00;99673.34;4992179;28;20328;-90
2024/03/13 14:17:27;;;;;;;;;;;;;;;5.90;100.00;99675.75;4974306;28;19926;-91
2024/03/13 14:19:52;;;;;;;;;;;;;;;5.86;100.00;99676.75;4974611;28;19922;-89
2024/03/13 14:22:17;;;;;;;;;;;;;;;5.80;100.00;99675.13;4992074;28;20452;-87
2024/03/13 14:24:43;;;;;;;;;;;;;;;5.85;100.00;99680.25;4992096;28;19922;-91
2024/03/13 14:27:12;;;;;;;;;;;;;;;5.77;100.00;99680.44;4975439;28;20012;-91
2024/03/13 14:29:38;;;;;;;;;;;;;;;5.82;100.00;99689.13;4995393;28;20352;-90
2024/03/13 14:32:07;;;;;;;;;;;;;;;5.80;100.00;99684.78;4994291;28;19933;-91
2024/03/13 14:34:34;;;;;;;;;;;;;;;5.74;100.00;99691.03;4994677;28;20024;-89
2024/03/13 14:37:00;;;;;;;;;;;;;;;5.75;100.00;99684.03;4995256;28;19972;-91
2024/03/13 14:39:25;;;;;;;;;;;;;;;5.78;100.00;99681.34;4995062;28;19926;-92
2024/03/13 14:41:53;;;;;;;;;;;;;;;5.73;100.00;99694.59;4992639;28;20381;-93
2024/03/13 14:44:23;;;;;;;;;;;;;;;5.79;100.00;99688.31;4995141;28;19925;-92
2024/03/13 14:46:48;;;;;;;;;;;;;;;5.77;100.00;99690.13;4994852;28;19925;-89
2024/03/13 14:49:18;;;;;;;;;;;;;;;5.79;100.00;99683.03;4993730;28;19921;-89
2024/03/13 14:51:51;;;;;;;;;;;;;;;5.75;100.00;99681.41;4976341;28;20369;-91
2024/03/13 14:54:19;;;;;;;;;;;;;;;5.64;100.00;99693.03;4977324;28;20028;-89
2024/03/13 14:56:44;;;;;;;;;;;;;;;5.70;100.00;99693.81;4992838;28;19929;-90
2024/03/13 14:59:33;;;;;;;;;;;;;;;;;;;;;
2024/03/13 15:02:18;;;;;;;;;;;;;;;5.64;100.00;99681.66;4995000;28;19918;-90
2024/03/13 15:07:55;;;;;;;;;;;;;;;5.64;100.00;99681.66;4895767;29;19989;-87
2024/03/13 15:10:32;;;;;;;;;;;;;;;;;;;;;
2024/03/13 15:13:00;;;;;;;;;;;;;;;5.66;100.00;99684.25;4994504;28;19925;-91
2024/03/13 15:15:25;;;;;;;;;;;;;;;5.59;100.00;99687.03;4994069;28;19926;-89
2024/03/13 15:17:51;;;;;;;;;;;;;;;5.57;100.00;99688.00;4994600;28;19917;-90
2024/03/13 15:20:19;;;;;;;;;;;;;;;5.59;100.00;99696.69;4994486;28;19921;-91
2024/03/13 15:22:47;;;;;;;;;;;;;;;5.54;100.00;99686.28;4976245;28;19925;-91
2024/03/13 15:25:13;;;;;;;;;;;;;;;5.54;100.00;99693.31;4994524;28;19961;-90
2024/03/13 15:27:51;;;;;;;;;;;;;;;5.51;100.00;99683.72;4993069;28;19983;-88
2024/03/13 15:30:28;;;;;;;;;;;;;;;;;;;;;
2024/03/13 15:32:54;;;;;;;;;;;;;;;5.58;100.00;99687.91;4991240;28;19918;-90
2024/03/13 15:35:22;;;;;;;;;;;;;;;5.61;100.00;99687.00;4994128;28;20005;-92
2024/03/13 15:37:48;;;;;;;;;;;;;;;5.59;100.00;99694.06;4992983;28;19922;-91
2024/03/13 15:40:15;;;;;;;;;;;;;;;5.58;100.00;99701.06;4974798;28;19944;-92
2024/03/13 15:42:41;;;;;;;;;;;;;;;5.53;100.00;99692.44;4992968;28;20492;-92
2024/03/13 15:45:10;;;;;;;;;;;;;;;5.58;100.00;99687.06;4994118;28;19921;-92
2024/03/13 15:47:36;;;;;;;;;;;;;;;5.60;100.00;99694.03;4993870;28;20295;-86
2024/03/13 15:50:02;;;;;;;;;;;;;;;5.50;100.00;99692.50;4994089;28;19917;-88
2024/03/13 15:52:30;;;;;;;;;;;;;;;5.42;100.00;99691.81;4993846;28;19921;-87
2024/03/13 15:54:55;;;;;;;;;;;;;;;5.40;100.00;99685.75;4992635;28;19918;-88
2024/03/13 15:57:23;;;;;;;;;;;;;;;5.46;100.00;99688.22;4974675;28;19929;-90
2024/03/13 15:59:56;;;;;;;;;;;;;;;5.38;100.00;99683.16;4975760;28;19945;-89
2024/03/13 16:02:21;;;;;;;;;;;;;;;5.39;100.00;99689.25;4993526;28;20393;-89
2024/03/13 16:04:46;;;;;;;;;;;;;;;5.40;100.00;99688.38;4993669;28;19964;-86
2024/03/13 16:07:13;;;;;;;;;;;;;;;5.44;100.00;99688.25;4993579;28;20285;-88
2024/03/13 16:09:39;;;;;;;;;;;;;;;5.43;100.00;99685.69;4993562;28;19922;-89
2024/03/13 16:12:04;;;;;;;;;;;;;;;5.37;100.00;99684.03;4992181;28;19925;-89
2024/03/13 16:14:30;;;;;;;;;;;;;;;5.40;100.00;99680.50;4975423;28;19933;-86
2024/03/13 16:16:57;;;;;;;;;;;;;;;5.40;100.00;99693.63;4992943;28;19917;-89
2024/03/13 16:19:23;;;;;;;;;;;;;;;5.41;100.00;99683.09;4993467;28;20362;-89
2024/03/13 16:21:48;;;;;;;;;;;;;;;5.38;100.00;99691.03;4992541;28;19914;-89
2024/03/13 16:24:14;;;;;;;;;;;;;;;5.38;100.00;99680.53;4993293;28;20432;-89
2024/03/13 16:26:51;;;;;;;;;;;;;;;5.35;100.00;99690.25;4974048;28;19924;-87
2024/03/13 16:29:16;;;;;;;;;;;;;;;5.40;100.00;99686.59;4993213;28;20527;-89
2024/03/13 16:31:41;;;;;;;;;;;;;;;5.42;100.00;99684.78;4993012;28;20008;-89
2024/03/13 16:34:07;;;;;;;;;;;;;;;5.40;100.00;99688.38;4993557;28;20276;-89
2024/03/13 16:36:35;;;;;;;;;;;;;;;5.45;100.00;99681.25;4993307;28;19925;-89
2024/03/13 16:39:01;;;;;;;;;;;;;;;5.43;100.00;99683.03;4992546;28;19936;-89
2024/03/13 16:41:26;;;;;;;;;;;;;;;5.44;100.00;99687.38;4991667;28;19922;-89
2024/03/13 16:43:54;;;;;;;;;;;;;;;5.37;100.00;99684.03;4975054;28;19922;-91
2024/03/13 16:46:19;;;;;;;;;;;;;;;5.41;100.00;99688.34;4973577;28;19924;-87
2024/03/13 16:48:45;;;;;;;;;;;;;;;5.45;100.00;99689.13;4992821;28;20017;-86
2024/03/13 16:51:11;;;;;;;;;;;;;;;5.42;100.00;99689.19;4992267;28;20349;-86
2024/03/13 16:53:36;;;;;;;;;;;;;;;5.45;100.00;99694.38;4992892;28;19924;-88
2024/03/13 16:56:01;;;;;;;;;;;;;;;5.41;100.00;99698.84;4991711;28;19918;-87
2024/03/13 16:58:27;;;;;;;;;;;;;;;5.42;100.00;99694.44;4959309;28;19922;-82
2024/03/13 17:00:52;;;;;;;;;;;;;;;5.48;100.00;99699.56;4973550;28;19922;-85
2024/03/13 17:03:18;;;;;;;;;;;;;;;5.56;100.00;99700.25;4973329;28;20008;-89
2024/03/13 17:05:43;;;;;;;;;;;;;;;5.45;100.00;99704.88;4973310;28;19926;-87
2024/03/13 17:08:09;;;;;;;;;;;;;;;5.48;100.00;99710.06;4973403;28;19925;-86
2024/03/13 17:10:34;;;;;;;;;;;;;;;5.53;100.00;99709.97;4971970;28;19929;-86
2024/03/13 17:12:59;;;;;;;;;;;;;;;5.44;100.00;99704.03;4973140;28;19918;-85
2024/03/13 17:15:24;;;;;;;;;;;;;;;5.51;100.00;99709.16;4973234;28;19929;-86
2024/03/13 17:17:51;;;;;;;;;;;;;;;5.45;100.00;99703.13;4973172;28;19922;-87
2024/03/13 17:20:17;;;;;;;;;;;;;;;5.41;100.00;99711.13;4973282;28;20016;-90
2024/03/13 17:22:45;;;;;;;;;;;;;;;5.38;100.00;99713.84;4973144;28;20026;-89
2024/03/13 17:25:13;;;;;;;;;;;;;;;5.46;100.00;99711.88;4973331;28;19969;-89
2024/03/13 17:27:39;;;;;;;;;;;;;;;5.50;100.00;99713.53;4971743;28;19929;-89
2024/03/13 17:30:08;;;;;;;;;;;;;;;5.44;100.00;99708.41;4972622;28;19922;-86
2024/03/13 17:32:33;;;;;;;;;;;;;;;5.50;100.00;99712.66;4972131;28;19919;-90
2024/03/13 17:35:03;;;;;;;;;;;;;;;5.44;100.00;99711.03;4973170;28;19925;-90
2024/03/13 17:37:28;;;;;;;;;;;;;;;5.40;100.00;99712.03;4972672;28;19918;-90
2024/03/13 17:39:54;;;;;;;;;;;;;;;5.42;100.00;99715.47;4972937;28;19934;-90
2024/03/13 17:42:21;;;;;;;;;;;;;;;5.34;100.00;99712.16;4954493;28;19914;-90
2024/03/13 17:44:47;;;;;;;;;;;;;;;5.36;100.00;99726.13;4974040;28;19921;-90
2024/03/13 17:47:15;;;;;;;;;;;;;;;5.28;100.00;99729.78;4972995;28;19918;-90
2024/03/13 17:49:43;;;;;;;;;;;;;;;5.43;100.00;99717.22;4971664;28;19968;-91
2024/03/13 17:52:08;;;;;;;;;;;;;;;5.38;100.00;99724.34;4971734;28;19918;-91
2024/03/13 17:54:34;;;;;;;;;;;;;;;5.38;100.00;99729.59;4971485;28;19993;-91
2024/03/13 17:56:59;;;;;;;;;;;;;;;5.42;100.00;99731.25;4957878;28;20154;-90
2024/03/13 17:59:25;;;;;;;;;;;;;;;5.42;100.00;99725.97;4991087;28;20382;-92
2024/03/13 18:01:50;;;;;;;;;;;;;;;5.36;100.00;99736.63;4992845;28;19918;-91
2024/03/13 18:04:16;;;;;;;;;;;;;;;5.35;100.00;99734.91;4977812;28;19918;-86
2024/03/13 18:06:42;;;;;;;;;;;;;;;5.41;100.00;99730.38;4978204;28;19918;-87
2024/03/13 18:09:09;;;;;;;;;;;;;;;5.37;100.00;99730.47;4978479;28;19922;-90
2024/03/13 18:11:35;;;;;;;;;;;;;;;5.26;100.00;99726.34;4977377;28;19918;-91
2024/03/13 18:14:00;;;;;;;;;;;;;;;5.41;100.00;99734.78;4994521;28;20004;-90
2024/03/13 18:16:26;;;;;;;;;;;;;;;5.36;100.00;99737.50;4995784;28;19965;-92
2024/03/13 18:18:51;;;;;;;;;;;;;;;5.31;100.00;99735.88;4994413;28;20377;-91
2024/03/13 18:21:16;;;;;;;;;;;;;;;5.27;100.00;99728.06;4978311;28;19925;-90
2024/03/13 18:23:46;;;;;;;;;;;;;;;5.28;100.00;99729.78;4995582;28;20005;-89
2024/03/13 18:26:11;;;;;;;;;;;;;;;5.28;100.00;99729.78;4993007;28;19972;-90
2024/03/13 18:28:38;;;;;;;;;;;;;;;5.20;100.00;99733.47;4995576;28;19922;-89
2024/03/13 18:31:05;;;;;;;;;;;;;;;5.28;100.00;99740.31;4978066;28;19926;-90
2024/03/13 18:33:31;;;;;;;;;;;;;;;5.31;100.00;99738.50;4994195;28;19922;-89
2024/03/13 18:35:56;;;;;;;;;;;;;;;5.24;100.00;99736.00;4995505;28;19922;-87
2024/03/13 18:38:21;;;;;;;;;;;;;;;5.26;100.00;99728.97;4995285;28;19924;-88
2024/03/13 18:40:47;;;;;;;;;;;;;;;5.27;100.00;99735.94;4994191;28;20289;-89
2024/03/13 18:43:12;;;;;;;;;;;;;;;5.27;100.00;99733.31;4995316;28;20274;-89
2024/03/13 18:45:37;;;;;;;;;;;;;;;5.29;100.00;99730.66;4977661;28;20016;-91
2024/03/13 18:48:03;;;;;;;;;;;;;;;5.28;100.00;99729.78;4995289;28;19928;-89
2024/03/13 18:50:29;;;;;;;;;;;;;;;5.24;100.00;99729.91;4995252;28;19965;-88
2024/03/13 18:52:55;;;;;;;;;;;;;;;5.20;100.00;99734.34;4977488;28;19922;-89
2024/03/13 18:55:23;;;;;;;;;;;;;;;5.24;100.00;99733.38;4994488;28;19965;-88
2024/03/13 18:57:48;;;;;;;;;;;;;;;5.19;100.00;99730.00;4966223;28;20365;-90
2024/03/13 19:00:16;;;;;;;;;;;;;;;5.23;100.00;99730.78;4975473;28;19922;-90
2024/03/13 19:02:44;;;;;;;;;;;;;;;5.23;100.00;99736.03;4975080;28;19922;-92
2024/03/13 19:05:11;;;;;;;;;;;;;;;5.19;100.00;99732.63;4975351;28;19924;-90
2024/03/13 19:07:40;;;;;;;;;;;;;;;5.22;100.00;99731.69;4973901;28;19918;-91
2024/03/13 19:10:05;;;;;;;;;;;;;;;5.24;100.00;99735.16;4975397;28;20013;-92
2024/03/13 19:12:33;;;;;;;;;;;;;;;5.20;100.00;99731.72;4955209;28;20391;-92
2024/03/13 19:15:13;;;;;;;;;;;;;;;5.22;100.00;99726.44;4975116;28;20020;-92
2024/03/13 19:17:40;;;;;;;;;;;;;;;5.18;100.00;99728.25;4957760;28;19987;-91
2024/03/13 19:20:07;;;;;;;;;;;;;;;5.20;100.00;99726.47;4973994;28;19929;-91
2024/03/13 19:22:33;;;;;;;;;;;;;;;5.24;100.00;99727.25;4974071;28;19929;-91
2024/03/13 19:25:03;;;;;;;;;;;;;;;5.21;100.00;99728.19;4975159;28;19918;-90
2024/03/13 19:27:30;;;;;;;;;;;;;;;5.14;100.00;99717.84;4973075;28;20293;-92
2024/03/13 19:29:56;;;;;;;;;;;;;;;5.17;100.00;99718.66;4973670;28;20497;-91
2024/03/13 19:32:22;;;;;;;;;;;;;;;5.17;100.00;99726.53;4975038;28;20009;-89
2024/03/13 19:34:47;;;;;;;;;;;;;;;5.11;100.00;99721.41;4974633;28;19945;-88
2024/03/13 19:37:14;;;;;;;;;;;;;;;5.13;100.00;99724.88;4956624;28;19973;-86
2024/03/13 19:39:39;;;;;;;;;;;;;;;5.09;100.00;99724.06;4974633;28;19922;-88
2024/03/13 19:42:05;;;;;;;;;;;;;;;5.13;100.00;99730.13;4973503;28;19929;-88
2024/03/13 19:44:31;;;;;;;;;;;;;;;5.21;100.00;99727.34;4974611;28;19918;-87
2024/03/13 19:46:58;;;;;;;;;;;;;;;5.12;100.00;99728.38;4974486;28;19956;-93
2024/03/13 19:49:24;;;;;;;;;;;;;;;5.14;100.00;99720.47;4974584;28;19922;-91
2024/03/13 19:51:49;;;;;;;;;;;;;;;5.14;100.00;99731.84;4973142;28;19925;-90
2024/03/13 19:54:17;;;;;;;;;;;;;;;5.11;100.00;99728.44;4957198;28;19918;-90
2024/03/13 19:56:43;;;;;;;;;;;;;;;5.17;100.00;99723.91;4975049;28;19921;-88